createdAt,value
2023-11-24T00:00:11.267Z,12.23
2023-11-24T00:03:01.848Z,11.27
2023-11-24T00:06:08.034Z,10.15
2023-11-24T00:08:56.974Z,11.48
2023-11-24T00:11:45.169Z,11.82
2023-11-24T00:14:32.863Z,10.20
2023-11-24T00:17:20.525Z,9.98
2023-11-24T00:20:12.072Z,10.77
2023-11-24T00:22:59.712Z,11.07
2023-11-24T00:25:47.338Z,9.40
2023-11-24T00:28:35.309Z,13.65
2023-11-24T00:31:26.487Z,11.68
2023-11-24T00:34:14.277Z,16.02
2023-11-24T00:37:02.677Z,13.82
2023-11-24T00:39:53.147Z,14.25
2023-11-24T00:42:41.914Z,14.07
2023-11-24T00:45:29.686Z,16.10
2023-11-24T00:48:17.849Z,13.68
2023-11-24T00:51:06.096Z,13.30
2023-11-24T00:53:54.242Z,14.27
2023-11-24T00:56:41.960Z,15.68
2023-11-24T00:59:29.779Z,13.25
2023-11-24T01:02:17.538Z,15.18
2023-11-24T01:05:06.518Z,14.57
2023-11-24T01:07:54.134Z,13.77
2023-11-24T01:10:44.769Z,12.63
2023-11-24T01:13:34.418Z,12.40
2023-11-24T01:16:23.062Z,12.07
2023-11-24T01:19:10.848Z,12.52
2023-11-24T01:21:58.543Z,14.63
2023-11-24T01:24:46.332Z,17.63
2023-11-24T01:27:34.181Z,21.55
2023-11-24T01:30:21.972Z,26.58
2023-11-24T01:33:11.222Z,24.00
2023-11-24T01:35:59.545Z,24.63
2023-11-24T01:38:47.584Z,17.13
2023-11-24T01:41:35.776Z,13.15
2023-11-24T01:44:24.064Z,12.05
2023-11-24T01:47:19.445Z,11.18
2023-11-24T01:50:09.135Z,16.23
2023-11-24T01:52:56.805Z,6.93
2023-11-24T01:55:44.531Z,4.53
2023-11-24T01:58:32.242Z,6.90
2023-11-24T02:01:22.895Z,4.10
2023-11-24T02:04:10.758Z,3.20
2023-11-24T02:06:59.009Z,4.43
2023-11-24T02:09:47.358Z,6.65
2023-11-24T02:12:39.114Z,6.57
2023-11-24T02:15:26.737Z,7.90
2023-11-24T02:18:14.477Z,6.95
2023-11-24T02:21:03.991Z,10.13
2023-11-24T02:23:52.038Z,6.15
2023-11-24T02:26:39.782Z,5.55
2023-11-24T02:29:28.079Z,4.90
2023-11-24T02:32:15.758Z,4.25
2023-11-24T02:35:04.407Z,4.72
2023-11-24T02:37:52.318Z,20.25
2023-11-24T02:40:42.120Z,24.95
2023-11-24T02:43:29.831Z,16.77
2023-11-24T02:46:17.877Z,8.40
2023-11-24T02:49:05.649Z,5.60
2023-11-24T02:51:55.692Z,4.25
2023-11-24T02:54:45.594Z,4.60
2023-11-24T02:57:35.547Z,5.63
2023-11-24T03:00:23.204Z,5.78
2023-11-24T03:03:10.940Z,6.88
2023-11-24T03:06:01.733Z,7.90
2023-11-24T03:08:49.606Z,9.38
2023-11-24T03:11:37.757Z,8.25
2023-11-24T03:14:28.516Z,9.25
2023-11-24T03:17:17.083Z,11.23
2023-11-24T03:20:04.948Z,7.32
2023-11-24T03:22:57.354Z,7.78
2023-11-24T03:25:47.600Z,8.93
2023-11-24T03:28:35.844Z,9.00
2023-11-24T03:31:23.553Z,8.75
2023-11-24T03:34:12.301Z,8.88
2023-11-24T03:37:00.253Z,9.85
2023-11-24T03:39:48.989Z,13.85
2023-11-24T03:42:37.028Z,10.18
2023-11-24T03:45:25.223Z,8.25
2023-11-24T03:48:22.059Z,7.50
2023-11-24T03:51:11.735Z,11.25
2023-11-24T03:53:59.458Z,13.00
2023-11-24T03:56:47.317Z,17.17
2023-11-24T03:59:35.526Z,17.80
2023-11-24T04:02:24.400Z,20.40
2023-11-24T04:05:13.487Z,20.58
2023-11-24T04:08:01.160Z,19.17
2023-11-24T04:10:48.873Z,17.35
2023-11-24T04:13:36.511Z,13.15
2023-11-24T04:16:24.730Z,10.20
2023-11-24T04:19:12.678Z,10.18
2023-11-24T04:22:00.299Z,10.63
2023-11-24T04:24:47.928Z,12.90
2023-11-24T04:27:35.951Z,10.90
2023-11-24T04:30:23.622Z,7.25
2023-11-24T04:33:11.399Z,7.78
2023-11-24T04:35:59.359Z,7.85
2023-11-24T04:38:47.108Z,4.00
2023-11-24T04:41:35.112Z,3.65
2023-11-24T04:44:23.005Z,7.18
2023-11-24T04:47:11.510Z,7.45
2023-11-24T04:49:59.335Z,5.68
2023-11-24T04:52:47.035Z,14.30
2023-11-24T04:55:34.823Z,7.97
2023-11-24T04:58:22.464Z,7.72
2023-11-24T05:01:10.707Z,9.20
2023-11-24T05:04:00.816Z,13.30
2023-11-24T05:06:48.563Z,10.80
2023-11-24T05:09:37.587Z,8.48
2023-11-24T05:12:28.611Z,9.35
2023-11-24T05:15:17.896Z,9.10
2023-11-24T05:18:05.878Z,7.65
2023-11-24T05:20:53.706Z,6.68
2023-11-24T05:23:42.360Z,4.85
2023-11-24T05:26:31.093Z,5.00
2023-11-24T05:29:19.686Z,8.00
2023-11-24T05:32:07.360Z,14.95
2023-11-24T05:34:55.591Z,11.05
2023-11-24T05:37:46.832Z,8.88
2023-11-24T05:40:34.456Z,10.40
2023-11-24T05:43:24.465Z,8.70
2023-11-24T05:46:24.525Z,7.70
2023-11-24T05:49:16.569Z,8.13
2023-11-24T05:52:04.389Z,7.93
2023-11-24T05:54:52.284Z,8.98
2023-11-24T05:57:40.119Z,7.65
2023-11-24T06:00:30.183Z,7.72
2023-11-24T06:03:17.976Z,7.05
2023-11-24T06:06:05.559Z,10.13
2023-11-24T06:08:53.399Z,11.18
2023-11-24T06:11:41.088Z,10.88
2023-11-24T06:14:28.840Z,10.30
2023-11-24T06:17:16.419Z,15.25
2023-11-24T06:20:05.397Z,20.38
2023-11-24T06:22:53.237Z,20.63
2023-11-24T06:25:40.961Z,16.75
2023-11-24T06:28:28.602Z,20.55
2023-11-24T06:31:17.413Z,24.23
2023-11-24T06:34:05.422Z,27.55
2023-11-24T06:36:56.028Z,26.92
2023-11-24T06:39:43.599Z,23.38
2023-11-24T06:42:32.213Z,27.45
2023-11-24T06:45:22.734Z,28.00
2023-11-24T06:48:12.232Z,42.55
2023-11-24T06:51:03.389Z,35.60
2023-11-24T06:53:53.525Z,33.97
2023-11-24T06:56:41.404Z,32.17
2023-11-24T06:59:29.073Z,31.92
2023-11-24T07:02:16.828Z,29.90
2023-11-24T07:05:05.137Z,27.90
2023-11-24T07:07:52.885Z,26.40
2023-11-24T07:10:42.720Z,20.52
2023-11-24T07:13:30.870Z,18.02
2023-11-24T07:16:18.797Z,17.58
2023-11-24T07:19:06.879Z,18.67
2023-11-24T07:21:54.705Z,21.27
2023-11-24T07:24:44.155Z,22.00
2023-11-24T07:27:32.459Z,21.40
2023-11-24T07:30:20.525Z,23.50
2023-11-24T07:33:11.994Z,19.52
2023-11-24T07:35:59.920Z,17.17
2023-11-24T07:38:47.960Z,15.57
2023-11-24T07:41:35.552Z,15.80
2023-11-24T07:44:24.009Z,18.55
2023-11-24T07:47:16.024Z,26.10
2023-11-24T07:50:05.795Z,22.17
2023-11-24T07:52:57.165Z,24.58
2023-11-24T07:55:46.157Z,30.85
2023-11-24T07:58:33.681Z,39.08
2023-11-24T08:01:22.920Z,40.90
2023-11-24T08:04:11.072Z,51.67
2023-11-24T08:07:01.182Z,64.10
2023-11-24T08:09:49.056Z,78.07
2023-11-24T08:12:36.893Z,96.97
2023-11-24T08:15:24.852Z,76.97
2023-11-24T08:18:12.416Z,60.20
2023-11-24T08:21:03.239Z,57.90
2023-11-24T08:23:51.311Z,48.53
2023-11-24T08:26:39.053Z,37.45
2023-11-24T08:29:27.795Z,24.88
2023-11-24T08:32:15.422Z,22.45
2023-11-24T08:35:03.291Z,20.33
2023-11-24T08:37:51.085Z,19.90
2023-11-24T08:40:40.495Z,18.52
2023-11-24T08:43:28.204Z,14.57
2023-11-24T08:46:15.942Z,14.43
2023-11-24T08:49:03.761Z,12.32
2023-11-24T08:51:51.470Z,13.07
2023-11-24T08:54:39.511Z,14.75
2023-11-24T08:57:29.514Z,11.98
2023-11-24T09:00:17.443Z,9.55
2023-11-24T09:03:06.716Z,8.52
2023-11-24T09:05:58.761Z,5.85
2023-11-24T09:08:46.728Z,5.82
2023-11-24T09:11:34.791Z,7.03
2023-11-24T09:14:32.702Z,7.97
2023-11-24T09:17:25.657Z,7.43
2023-11-24T09:20:21.095Z,7.72
2023-11-24T09:23:14.169Z,13.75
2023-11-24T09:26:14.139Z,13.95
2023-11-24T09:29:02.058Z,11.38
2023-11-24T09:31:49.868Z,14.90
2023-11-24T09:34:38.756Z,19.42
2023-11-24T09:37:28.035Z,9.60
2023-11-24T09:40:17.678Z,7.60
2023-11-24T09:43:05.722Z,8.65
2023-11-24T09:45:54.487Z,7.10
2023-11-24T09:48:46.802Z,24.88
2023-11-24T09:51:35.960Z,19.25
2023-11-24T09:54:23.770Z,13.85
2023-11-24T09:57:11.378Z,14.32
2023-11-24T09:59:59.089Z,12.88
2023-11-24T10:02:49.554Z,13.77
2023-11-24T10:05:37.357Z,14.00
2023-11-24T10:08:25.769Z,13.63
2023-11-24T10:11:15.384Z,16.80
2023-11-24T10:14:05.959Z,13.50
2023-11-24T10:16:53.712Z,13.43
2023-11-24T10:19:44.830Z,13.18
2023-11-24T10:22:32.444Z,18.25
2023-11-24T10:25:25.100Z,16.17
2023-11-24T10:28:12.823Z,16.92
2023-11-24T10:31:01.147Z,17.27
2023-11-24T10:33:49.837Z,19.25
2023-11-24T10:36:37.965Z,24.58
2023-11-24T10:39:27.084Z,25.42
2023-11-24T10:42:20.544Z,22.17
2023-11-24T10:45:11.422Z,21.73
2023-11-24T10:48:08.214Z,21.33
2023-11-24T10:51:01.634Z,22.45
2023-11-24T10:53:58.226Z,65.03
2023-11-24T10:56:46.388Z,42.35
2023-11-24T10:59:36.060Z,25.45
2023-11-24T11:02:24.213Z,24.05
2023-11-24T11:05:29.223Z,21.80
2023-11-24T11:08:32.783Z,22.70
2023-11-24T11:11:27.472Z,21.98
2023-11-24T11:14:17.046Z,20.35
2023-11-24T11:17:13.887Z,20.15
2023-11-24T11:20:06.935Z,17.67
2023-11-24T11:23:03.923Z,15.68
2023-11-24T11:25:54.820Z,14.35
2023-11-24T11:28:43.982Z,13.90
2023-11-24T11:31:35.647Z,18.27
2023-11-24T11:34:33.229Z,20.48
2023-11-24T11:37:21.427Z,20.27
2023-11-24T11:40:13.028Z,25.02
2023-11-24T11:43:06.879Z,24.35
2023-11-24T11:45:54.550Z,19.23
2023-11-24T11:48:44.943Z,19.70
2023-11-24T11:51:32.699Z,20.40
2023-11-24T11:54:20.507Z,23.95
2023-11-24T11:57:08.816Z,20.17
2023-11-24T11:59:56.824Z,13.75
2023-11-24T12:02:44.664Z,7.30
2023-11-24T12:05:38.723Z,3.22
2023-11-24T12:08:28.795Z,1.83
2023-11-24T12:11:16.635Z,2.00
2023-11-24T12:14:04.250Z,1.63
2023-11-24T12:16:53.288Z,1.10
2023-11-24T12:19:41.994Z,1.15
2023-11-24T12:22:31.597Z,3.08
2023-11-24T12:25:19.524Z,5.15
2023-11-24T12:28:10.334Z,3.78
2023-11-24T12:30:57.971Z,3.17
2023-11-24T12:33:51.866Z,3.05
2023-11-24T12:36:39.845Z,1.63
2023-11-24T12:39:32.195Z,2.10
2023-11-24T12:42:22.366Z,2.65
2023-11-24T12:45:10.341Z,2.72
2023-11-24T12:48:07.077Z,1.75
2023-11-24T12:50:57.933Z,1.80
2023-11-24T12:53:46.768Z,3.28
2023-11-24T12:56:36.289Z,2.30
2023-11-24T12:59:24.033Z,2.05
2023-11-24T13:02:11.750Z,2.50
2023-11-24T13:04:59.418Z,2.38
2023-11-24T13:07:48.731Z,2.72
2023-11-24T13:10:38.177Z,3.33
2023-11-24T13:13:25.972Z,4.30
2023-11-24T13:16:16.303Z,11.80
2023-11-24T13:19:03.961Z,10.38
2023-11-24T13:21:54.946Z,12.07
2023-11-24T13:24:42.740Z,10.30
2023-11-24T13:27:32.151Z,21.98
2023-11-24T13:30:23.211Z,16.08
2023-11-24T13:33:10.985Z,17.03
2023-11-24T13:35:59.028Z,14.88
2023-11-24T13:38:46.717Z,14.23
2023-11-24T13:41:34.707Z,15.10
2023-11-24T13:44:22.613Z,15.32
2023-11-24T13:47:14.438Z,17.67
2023-11-24T13:50:02.337Z,18.00
2023-11-24T13:52:57.554Z,23.02
2023-11-24T13:55:45.735Z,27.42
2023-11-24T13:58:34.051Z,26.38
2023-11-24T14:01:24.802Z,24.58
2023-11-24T14:04:18.504Z,26.17
2023-11-24T14:07:11.248Z,20.60
2023-11-24T14:09:59.040Z,21.08
2023-11-24T14:12:47.503Z,17.13
2023-11-24T14:15:35.221Z,11.10
2023-11-24T14:18:23.073Z,8.88
2023-11-24T14:21:11.909Z,8.02
2023-11-24T14:24:04.925Z,8.68
2023-11-24T14:26:52.712Z,10.57
2023-11-24T14:35:46.628Z,35.33
2023-11-24T14:38:34.213Z,54.10
2023-11-24T14:41:22.979Z,29.58
2023-11-24T14:44:10.784Z,25.42
2023-11-24T14:46:58.581Z,23.20
2023-11-24T14:49:46.388Z,23.52
2023-11-24T14:52:34.118Z,22.23
2023-11-24T14:55:23.352Z,18.40
2023-11-24T14:58:12.786Z,23.17
2023-11-24T15:01:03.905Z,24.92
2023-11-24T15:03:53.323Z,23.83
2023-11-24T15:06:41.375Z,20.35
2023-11-24T15:09:31.491Z,13.05
2023-11-24T15:12:18.966Z,14.77
2023-11-24T15:15:07.643Z,22.73
2023-11-24T15:17:55.344Z,13.80
2023-11-24T15:20:45.441Z,8.65
2023-11-24T15:23:33.062Z,9.70
2023-11-24T15:26:24.510Z,6.78
2023-11-24T15:29:14.567Z,6.95
2023-11-24T15:32:02.223Z,8.80
2023-11-24T15:34:49.902Z,12.68
2023-11-24T15:37:37.661Z,18.73
2023-11-24T15:40:26.333Z,13.60
2023-11-24T15:43:30.467Z,16.92
2023-11-24T15:47:59.724Z,9.73
2023-11-24T15:51:46.438Z,11.57
2023-11-24T15:55:01.695Z,8.02
2023-11-24T15:58:09.805Z,5.65
2023-11-24T16:01:20.597Z,8.45
2023-11-24T16:07:36.761Z,17.25
2023-11-24T16:10:27.534Z,8.45
2023-11-24T16:13:15.209Z,6.63
2023-11-24T16:16:06.609Z,6.57
2023-11-24T16:18:57.220Z,6.40
2023-11-24T16:21:44.822Z,6.53
2023-11-24T16:24:32.743Z,7.03
2023-11-24T16:27:20.525Z,7.07
2023-11-24T16:30:08.651Z,7.72
2023-11-24T16:32:58.920Z,12.60
2023-11-24T16:35:49.350Z,10.68
2023-11-24T16:42:19.470Z,4.28
2023-11-24T16:45:08.225Z,7.38
2023-11-24T16:47:55.908Z,10.30
2023-11-24T16:50:43.582Z,8.40
2023-11-24T16:53:31.600Z,5.50
2023-11-24T16:56:19.526Z,8.35
2023-11-24T16:59:08.517Z,6.65
2023-11-24T17:01:56.277Z,6.40
2023-11-24T17:04:44.868Z,6.03
2023-11-24T17:07:32.764Z,4.00
2023-11-24T17:10:20.343Z,5.93
2023-11-24T17:13:08.120Z,6.40
2023-11-24T17:15:55.854Z,5.82
2023-11-24T17:18:46.295Z,7.38
2023-11-24T17:21:33.946Z,19.73
2023-11-24T17:24:23.289Z,30.95
2023-11-24T17:27:11.181Z,20.40
2023-11-24T17:29:59.028Z,11.85
2023-11-24T17:32:49.585Z,8.77
2023-11-24T17:35:37.935Z,6.82
2023-11-24T17:38:27.120Z,6.80
2023-11-24T17:41:15.007Z,8.38
2023-11-24T17:44:03.118Z,9.20
2023-11-24T17:46:51.087Z,13.38
2023-11-24T17:49:38.999Z,13.27
2023-11-24T17:52:26.646Z,12.82
2023-11-24T17:55:16.252Z,12.60
2023-11-24T17:58:04.037Z,12.70
2023-11-24T18:00:51.887Z,15.13
2023-11-24T18:03:39.787Z,12.05
2023-11-24T18:06:29.704Z,7.68
2023-11-24T18:09:20.644Z,7.07
2023-11-24T18:12:08.633Z,8.18
2023-11-24T18:14:56.727Z,8.48
2023-11-24T18:17:44.404Z,6.97
2023-11-24T18:20:34.348Z,6.25
2023-11-24T18:23:22.104Z,7.22
2023-11-24T18:26:09.790Z,6.28
2023-11-24T18:28:58.400Z,6.60
2023-11-24T18:31:46.529Z,5.50
2023-11-24T18:34:34.419Z,5.80
2023-11-24T18:37:22.306Z,10.07
2023-11-24T18:40:10.439Z,12.18
2023-11-24T18:43:00.023Z,9.25
2023-11-24T18:45:47.706Z,8.50
2023-11-24T18:48:35.836Z,9.10
2023-11-24T18:51:23.520Z,8.25
2023-11-24T18:54:12.255Z,6.10
2023-11-24T18:56:59.989Z,6.28
2023-11-24T18:59:48.735Z,7.28
2023-11-24T19:02:41.192Z,5.38
2023-11-24T19:05:29.631Z,4.20
2023-11-24T19:08:17.477Z,3.50
2023-11-24T19:11:07.567Z,4.15
2023-11-24T19:13:55.464Z,3.28
2023-11-24T19:16:45.259Z,3.70
2023-11-24T19:19:33.301Z,3.30
2023-11-24T19:22:21.606Z,3.53
2023-11-24T19:25:10.281Z,2.35
2023-11-24T19:27:59.295Z,2.58
2023-11-24T19:30:51.791Z,3.53
2023-11-24T19:33:40.579Z,3.30
2023-11-24T19:36:33.203Z,3.50
2023-11-24T19:39:20.969Z,4.05
2023-11-24T19:42:08.622Z,2.63
2023-11-24T19:44:56.440Z,2.58
2023-11-24T19:47:44.303Z,3.10
2023-11-24T19:50:31.950Z,2.75
2023-11-24T19:53:22.664Z,2.13
2023-11-24T19:56:10.748Z,2.30
2023-11-24T19:58:58.471Z,2.28
2023-11-24T20:01:46.362Z,3.88
2023-11-24T20:04:34.299Z,3.95
2023-11-24T20:07:24.837Z,4.65
2023-11-24T20:10:16.390Z,2.80
2023-11-24T20:13:05.898Z,2.45
2023-11-24T20:15:53.748Z,2.75
2023-11-24T20:18:45.726Z,2.45
2023-11-24T20:21:36.199Z,2.92
2023-11-24T20:24:24.453Z,3.30
2023-11-24T20:27:12.108Z,3.15
2023-11-24T20:30:00.010Z,3.90
2023-11-24T20:32:49.041Z,4.82
2023-11-24T20:35:36.596Z,4.07
2023-11-24T20:38:25.793Z,3.63
2023-11-24T20:41:15.737Z,3.38
2023-11-24T20:44:03.558Z,3.10
2023-11-24T20:46:52.167Z,3.28
2023-11-24T20:49:39.962Z,3.58
2023-11-24T20:52:28.061Z,4.55
2023-11-24T20:55:17.888Z,5.20
2023-11-24T20:58:06.490Z,6.55
2023-11-24T21:00:57.242Z,3.92
2023-11-24T21:03:46.659Z,2.95
2023-11-24T21:06:34.850Z,2.22
2023-11-24T21:09:22.512Z,4.50
2023-11-24T21:12:10.197Z,4.55
2023-11-24T21:14:58.690Z,3.58
2023-11-24T21:17:51.256Z,3.92
2023-11-24T21:20:42.608Z,4.97
2023-11-24T21:23:30.293Z,6.27
2023-11-24T21:26:18.890Z,3.20
2023-11-24T21:29:09.406Z,4.50
2023-11-24T21:31:57.557Z,5.13
2023-11-24T21:34:45.268Z,4.47
2023-11-24T21:37:36.290Z,3.95
2023-11-24T21:40:24.058Z,3.05
2023-11-24T21:43:11.823Z,4.57
2023-11-24T21:46:02.716Z,4.43
2023-11-24T21:48:51.004Z,3.85
2023-11-24T21:51:40.160Z,3.33
2023-11-24T21:54:30.305Z,2.95
2023-11-24T21:57:18.187Z,2.50
2023-11-24T22:00:09.006Z,2.38
2023-11-24T22:02:57.075Z,2.20
2023-11-24T22:05:48.336Z,2.47
2023-11-24T22:08:38.267Z,2.50
2023-11-24T22:11:25.919Z,2.53
2023-11-24T22:14:13.773Z,2.47
2023-11-24T22:17:02.184Z,2.35
2023-11-24T22:19:52.780Z,3.13
2023-11-24T22:22:43.398Z,4.13
2023-11-24T22:25:35.894Z,3.25
2023-11-24T22:28:24.343Z,2.67
2023-11-24T22:31:16.202Z,2.38
2023-11-24T22:34:04.027Z,2.88
2023-11-24T22:36:52.133Z,2.35
2023-11-24T22:39:40.531Z,4.57
2023-11-24T22:42:30.528Z,2.38
2023-11-24T22:45:18.375Z,1.60
2023-11-24T22:48:06.173Z,2.13
2023-11-24T22:50:53.888Z,3.00
2023-11-24T22:53:42.451Z,2.42
2023-11-24T22:56:30.540Z,3.10
2023-11-24T22:59:18.426Z,2.47
2023-11-24T23:02:09.234Z,3.17
2023-11-24T23:05:04.955Z,2.78
2023-11-24T23:07:53.554Z,2.97
2023-11-24T23:10:41.366Z,2.65
2023-11-24T23:13:29.082Z,2.58
2023-11-24T23:16:18.983Z,2.85
2023-11-24T23:19:07.200Z,2.35
2023-11-24T23:21:58.354Z,2.30
2023-11-24T23:24:46.000Z,2.40
2023-11-24T23:27:33.869Z,2.58
2023-11-24T23:30:21.911Z,1.40
2023-11-24T23:33:16.148Z,2.20
2023-11-24T23:36:06.700Z,1.50
2023-11-24T23:38:54.367Z,1.95
2023-11-24T23:41:42.241Z,2.13
2023-11-24T23:44:29.963Z,1.83
2023-11-24T23:47:18.438Z,1.45
2023-11-24T23:50:07.526Z,1.00
2023-11-24T23:52:56.433Z,1.08
2023-11-24T23:55:44.201Z,0.52
2023-11-24T23:58:33.235Z,0.85
